sensor_id;sensor_type;location;lat;lon;timestamp;pressure;altitude;pressure_sealevel;temperature;humidity
18167;BME280;9208;42.688;23.404;2023-05-10T00:02:01;95772.38;;;11.74;100.00
18167;BME280;9208;42.688;23.404;2023-05-10T00:04:27;95775.97;;;11.80;100.00
18167;BME280;9208;42.688;23.404;2023-05-10T00:06:53;95776.63;;;11.75;100.00
18167;BME280;9208;42.688;23.404;2023-05-10T00:09:18;95773.91;;;11.75;100.00
18167;BME280;9208;42.688;23.404;2023-05-10T00:11:44;95769.63;;;11.74;100.00
18167;BME280;9208;42.688;23.404;2023-05-10T00:14:10;95766.22;;;11.79;100.00
18167;BME280;9208;42.688;23.404;2023-05-10T00:16:35;95763.56;;;11.55;100.00
18167;BME280;9208;42.688;23.404;2023-05-10T00:19:00;95765.28;;;11.67;100.00
18167;BME280;9208;42.688;23.404;2023-05-10T00:21:26;95756.19;;;11.61;100.00
18167;BME280;9208;42.688;23.404;2023-05-10T00:23:53;95753.97;;;11.60;100.00
18167;BME280;9208;42.688;23.404;2023-05-10T00:26:18;95760.53;;;11.68;100.00
18167;BME280;9208;42.688;23.404;2023-05-10T00:28:44;95759.97;;;11.64;100.00
18167;BME280;9208;42.688;23.404;2023-05-10T00:31:09;95763.09;;;11.57;100.00
18167;BME280;9208;42.688;23.404;2023-05-10T00:33:35;95758.09;;;11.55;100.00
18167;BME280;9208;42.688;23.404;2023-05-10T00:36:00;95758.84;;;11.56;100.00
18167;BME280;9208;42.688;23.404;2023-05-10T00:38:26;95719.50;;;11.30;100.00
18167;BME280;9208;42.688;23.404;2023-05-10T00:40:52;95756.69;;;11.60;100.00
18167;BME280;9208;42.688;23.404;2023-05-10T00:43:17;95754.69;;;11.60;100.00
18167;BME280;9208;42.688;23.404;2023-05-10T00:45:43;95752.97;;;11.63;100.00
18167;BME280;9208;42.688;23.404;2023-05-10T00:48:09;95752.97;;;11.63;100.00
18167;BME280;9208;42.688;23.404;2023-05-10T00:50:34;95742.09;;;11.54;100.00
18167;BME280;9208;42.688;23.404;2023-05-10T00:53:00;95750.22;;;11.63;100.00
18167;BME280;9208;42.688;23.404;2023-05-10T00:55:27;95749.75;;;11.64;100.00
18167;BME280;9208;42.688;23.404;2023-05-10T00:57:53;95740.66;;;11.58;100.00
18167;BME280;9208;42.688;23.404;2023-05-10T01:00:19;95748.13;;;11.58;100.00
18167;BME280;9208;42.688;23.404;2023-05-10T01:02:45;95745.81;;;11.51;100.00
18167;BME280;9208;42.688;23.404;2023-05-10T01:05:12;95746.25;;;11.64;100.00
18167;BME280;9208;42.688;23.404;2023-05-10T01:07:38;95742.84;;;11.54;100.00
18167;BME280;9208;42.688;23.404;2023-05-10T01:10:07;95742.09;;;11.54;100.00
18167;BME280;9208;42.688;23.404;2023-05-10T01:12:37;95739.06;;;11.52;100.00
18167;BME280;9208;42.688;23.404;2023-05-10T01:15:04;95731.88;;;11.40;100.00
18167;BME280;9208;42.688;23.404;2023-05-10T01:17:30;95740.13;;;11.40;100.00
18167;BME280;9208;42.688;23.404;2023-05-10T01:19:56;95745.25;;;11.32;100.00
18167;BME280;9208;42.688;23.404;2023-05-10T01:31:18;95734.66;;;11.25;100.00
18167;BME280;9208;42.688;23.404;2023-05-10T01:33:55;95728.59;;;11.21;100.00
18167;BME280;9208;42.688;23.404;2023-05-10T01:36:42;95721.53;;;11.15;100.00
18167;BME280;9208;42.688;23.404;2023-05-10T01:39:32;95729.34;;;11.22;100.00
18167;BME280;9208;42.688;23.404;2023-05-10T01:42:21;95726.34;;;11.20;100.00
18167;BME280;9208;42.688;23.404;2023-05-10T01:48:13;95717.63;;;11.21;100.00
18167;BME280;9208;42.688;23.404;2023-05-10T01:50:42;95715.00;;;10.98;100.00
18167;BME280;9208;42.688;23.404;2023-05-10T01:53:09;95717.34;;;11.05;100.00
18167;BME280;9208;42.688;23.404;2023-05-10T01:55:48;95720.28;;;11.16;100.00
18167;BME280;9208;42.688;23.404;2023-05-10T01:58:44;95719.81;;;11.17;100.00
18167;BME280;9208;42.688;23.404;2023-05-10T02:01:13;95709.50;;;10.98;100.00
18167;BME280;9208;42.688;23.404;2023-05-10T02:03:39;95719.06;;;11.17;100.00
18167;BME280;9208;42.688;23.404;2023-05-10T02:06:07;95716.03;;;11.15;100.00
18167;BME280;9208;42.688;23.404;2023-05-10T02:08:35;95717.75;;;10.98;100.00
18167;BME280;9208;42.688;23.404;2023-05-10T02:11:02;95729.56;;;11.04;100.00
18167;BME280;9208;42.688;23.404;2023-05-10T02:13:29;95726.63;;;11.07;100.00
18167;BME280;9208;42.688;23.404;2023-05-10T02:15:57;95708.19;;;10.93;100.00
18167;BME280;9208;42.688;23.404;2023-05-10T02:18:23;95725.88;;;11.07;100.00
18167;BME280;9208;42.688;23.404;2023-05-10T02:20:52;95726.81;;;11.04;100.00
18167;BME280;9208;42.688;23.404;2023-05-10T02:23:20;95725.88;;;10.92;100.00
18167;BME280;9208;42.688;23.404;2023-05-10T02:25:46;95732.97;;;10.99;100.00
18167;BME280;9208;42.688;23.404;2023-05-10T02:28:14;95732.31;;;11.04;100.00
18167;BME280;9208;42.688;23.404;2023-05-10T02:30:40;95740.53;;;11.04;100.00
18167;BME280;9208;42.688;23.404;2023-05-10T02:33:06;95734.66;;;10.96;100.00
18167;BME280;9208;42.688;23.404;2023-05-10T02:35:32;95734.28;;;10.89;100.00
18167;BME280;9208;42.688;23.404;2023-05-10T02:37:59;95734.97;;;10.84;100.00
18167;BME280;9208;42.688;23.404;2023-05-10T02:40:25;95730.31;;;10.75;100.00
18167;BME280;9208;42.688;23.404;2023-05-10T02:42:55;95726.41;;;10.53;100.00
18167;BME280;9208;42.688;23.404;2023-05-10T02:45:24;95723.38;;;10.51;100.00
18167;BME280;9208;42.688;23.404;2023-05-10T02:47:51;95723.63;;;10.38;100.00
18167;BME280;9208;42.688;23.404;2023-05-10T02:50:18;95718.09;;;10.47;100.00
18167;BME280;9208;42.688;23.404;2023-05-10T02:52:49;95724.91;;;10.52;100.00
18167;BME280;9208;42.688;23.404;2023-05-10T02:55:16;95718.53;;;10.46;100.00
18167;BME280;9208;42.688;23.404;2023-05-10T02:57:48;95722.72;;;10.41;100.00
18167;BME280;9208;42.688;23.404;2023-05-10T03:00:16;95724.22;;;10.42;100.00
18167;BME280;9208;42.688;23.404;2023-05-10T03:02:41;95721.38;;;10.37;100.00
18167;BME280;9208;42.688;23.404;2023-05-10T03:05:07;95721.38;;;10.37;100.00
18167;BME280;9208;42.688;23.404;2023-05-10T03:07:33;95708.47;;;10.13;100.00
18167;BME280;9208;42.688;23.404;2023-05-10T03:09:59;95721.16;;;10.26;100.00
18167;BME280;9208;42.688;23.404;2023-05-10T03:18:50;95740.03;;;10.23;100.00
18167;BME280;9208;42.688;23.404;2023-05-10T03:21:22;95737.03;;;10.22;100.00
18167;BME280;9208;42.688;23.404;2023-05-10T03:23:52;95738.72;;;10.19;100.00
18167;BME280;9208;42.688;23.404;2023-05-10T03:26:24;95745.97;;;10.22;100.00
18167;BME280;9208;42.688;23.404;2023-05-10T03:28:51;95736.84;;;10.25;100.00
18167;BME280;9208;42.688;23.404;2023-05-10T03:31:18;95731.59;;;10.13;100.00
18167;BME280;9208;42.688;23.404;2023-05-10T03:33:50;95738.78;;;10.10;100.00
18167;BME280;9208;42.688;23.404;2023-05-10T03:36:16;95740.41;;;10.17;100.00
18167;BME280;9208;42.688;23.404;2023-05-10T03:38:42;95734.41;;;10.27;100.00
18167;BME280;9208;42.688;23.404;2023-05-10T03:41:07;95744.94;;;10.19;100.00
18167;BME280;9208;42.688;23.404;2023-05-10T03:43:33;95740.44;;;10.31;100.00
18167;BME280;9208;42.688;23.404;2023-05-10T03:46:01;95734.41;;;10.27;100.00
18167;BME280;9208;42.688;23.404;2023-05-10T03:48:27;95730.19;;;10.17;100.00
18167;BME280;9208;42.688;23.404;2023-05-10T03:50:52;95741.16;;;10.17;100.00
18167;BME280;9208;42.688;23.404;2023-05-10T03:53:18;95738.47;;;10.08;100.00
18167;BME280;9208;42.688;23.404;2023-05-10T03:55:43;95747.75;;;10.10;100.00
18167;BME280;9208;42.688;23.404;2023-05-10T03:58:12;95750.19;;;10.08;100.00
18167;BME280;9208;42.688;23.404;2023-05-10T04:00:38;95742.59;;;10.03;100.00
18167;BME280;9208;42.688;23.404;2023-05-10T04:03:09;95734.53;;;10.09;100.00
18167;BME280;9208;42.688;23.404;2023-05-10T04:05:35;95754.25;;;10.13;100.00
18167;BME280;9208;42.688;23.404;2023-05-10T04:08:01;95745.88;;;10.17;100.00
18167;BME280;9208;42.688;23.404;2023-05-10T04:10:26;95759.88;;;10.18;100.00
18167;BME280;9208;42.688;23.404;2023-05-10T04:12:51;95762.84;;;10.30;100.00
18167;BME280;9208;42.688;23.404;2023-05-10T04:15:17;95763.00;;;10.26;100.00
18167;BME280;9208;42.688;23.404;2023-05-10T04:17:42;95763.50;;;10.25;100.00
18167;BME280;9208;42.688;23.404;2023-05-10T04:20:08;95771.81;;;10.30;100.00
18167;BME280;9208;42.688;23.404;2023-05-10T04:22:34;95765.09;;;10.31;100.00
18167;BME280;9208;42.688;23.404;2023-05-10T04:24:59;95768.41;;;10.35;100.00
18167;BME280;9208;42.688;23.404;2023-05-10T04:27:25;95766.63;;;10.32;100.00
18167;BME280;9208;42.688;23.404;2023-05-10T04:29:50;95769.66;;;10.34;100.00
18167;BME280;9208;42.688;23.404;2023-05-10T04:32:16;95767.03;;;10.40;100.00
18167;BME280;9208;42.688;23.404;2023-05-10T04:34:43;95754.03;;;10.26;100.00
18167;BME280;9208;42.688;23.404;2023-05-10T04:37:08;95768.06;;;10.42;100.00
18167;BME280;9208;42.688;23.404;2023-05-10T04:39:34;95765.03;;;10.40;100.00
18167;BME280;9208;42.688;23.404;2023-05-10T04:42:01;95756.88;;;10.31;100.00
18167;BME280;9208;42.688;23.404;2023-05-10T04:44:28;95769.38;;;10.47;100.00
18167;BME280;9208;42.688;23.404;2023-05-10T04:46:54;95752.34;;;10.28;100.00
18167;BME280;9208;42.688;23.404;2023-05-10T04:49:20;95767.16;;;10.45;100.00
18167;BME280;9208;42.688;23.404;2023-05-10T04:51:45;95768.13;;;10.57;100.00
18167;BME280;9208;42.688;23.404;2023-05-10T04:54:11;95768.28;;;10.53;100.00
18167;BME280;9208;42.688;23.404;2023-05-10T04:56:36;95768.28;;;10.53;100.00
18167;BME280;9208;42.688;23.404;2023-05-10T04:59:02;95760.94;;;10.59;100.00
18167;BME280;9208;42.688;23.404;2023-05-10T05:01:28;95767.25;;;10.65;100.00
18167;BME280;9208;42.688;23.404;2023-05-10T05:03:53;95756.97;;;10.60;100.00
18167;BME280;9208;42.688;23.404;2023-05-10T05:06:19;95774.38;;;10.72;100.00
18167;BME280;9208;42.688;23.404;2023-05-10T05:08:46;95765.94;;;10.75;100.00
18167;BME280;9208;42.688;23.404;2023-05-10T05:11:11;95768.22;;;10.77;100.00
18167;BME280;9208;42.688;23.404;2023-05-10T05:13:36;95774.72;;;10.65;100.00
18167;BME280;9208;42.688;23.404;2023-05-10T05:16:02;95776.25;;;10.66;100.00
18167;BME280;9208;42.688;23.404;2023-05-10T05:18:28;95775.59;;;10.71;100.00
18167;BME280;9208;42.688;23.404;2023-05-10T05:20:54;95778.72;;;10.78;100.00
18167;BME280;9208;42.688;23.404;2023-05-10T05:23:19;95776.56;;;10.82;100.00
18167;BME280;9208;42.688;23.404;2023-05-10T05:25:46;95774.28;;;10.81;100.00
18167;BME280;9208;42.688;23.404;2023-05-10T05:28:11;95776.38;;;10.86;100.00
18167;BME280;9208;42.688;23.404;2023-05-10T05:30:37;95784.97;;;10.93;100.00
18167;BME280;9208;42.688;23.404;2023-05-10T05:33:02;95788.19;;;10.92;100.00
18167;BME280;9208;42.688;23.404;2023-05-10T05:35:28;95791.44;;;10.90;100.00
18167;BME280;9208;42.688;23.404;2023-05-10T05:37:54;95798.16;;;11.04;100.00
18167;BME280;9208;42.688;23.404;2023-05-10T05:40:19;95790.69;;;11.04;100.00
18167;BME280;9208;42.688;23.404;2023-05-10T05:42:45;95791.97;;;10.94;100.00
18167;BME280;9208;42.688;23.404;2023-05-10T05:45:11;95785.84;;;11.14;100.00
18167;BME280;9208;42.688;23.404;2023-05-10T05:47:39;95783.75;;;11.09;100.00
18167;BME280;9208;42.688;23.404;2023-05-10T05:50:05;95786.50;;;10.94;100.00
18167;BME280;9208;42.688;23.404;2023-05-10T05:52:30;95785.47;;;11.06;100.00
18167;BME280;9208;42.688;23.404;2023-05-10T05:54:56;95794.09;;;10.99;100.00
18167;BME280;9208;42.688;23.404;2023-05-10T05:57:21;95800.50;;;10.96;100.00
18167;BME280;9208;42.688;23.404;2023-05-10T05:59:47;95800.88;;;11.04;100.00
18167;BME280;9208;42.688;23.404;2023-05-10T06:02:12;95794.84;;;11.29;100.00
18167;BME280;9208;42.688;23.404;2023-05-10T06:04:38;95799.09;;;11.30;100.00
18167;BME280;9208;42.688;23.404;2023-05-10T06:07:03;95796.63;;;11.32;100.00
18167;BME280;9208;42.688;23.404;2023-05-10T06:09:29;95801.56;;;11.28;100.00
18167;BME280;9208;42.688;23.404;2023-05-10T06:11:54;95806.75;;;11.26;100.00
18167;BME280;9208;42.688;23.404;2023-05-10T06:14:21;95790.66;;;11.19;100.00
18167;BME280;9208;42.688;23.404;2023-05-10T06:16:47;95807.44;;;11.21;100.00
18167;BME280;9208;42.688;23.404;2023-05-10T06:19:12;95805.34;;;11.16;100.00
18167;BME280;9208;42.688;23.404;2023-05-10T06:21:39;95805.94;;;11.20;100.00
18167;BME280;9208;42.688;23.404;2023-05-10T06:24:05;95809.59;;;11.17;100.00
18167;BME280;9208;42.688;23.404;2023-05-10T06:26:32;95806.00;;;11.25;100.00
18167;BME280;9208;42.688;23.404;2023-05-10T06:28:57;95816.72;;;11.38;100.00
18167;BME280;9208;42.688;23.404;2023-05-10T06:31:22;95807.16;;;11.62;100.00
18167;BME280;9208;42.688;23.404;2023-05-10T06:33:48;95813.53;;;11.88;100.00
18167;BME280;9208;42.688;23.404;2023-05-10T06:36:13;95813.38;;;12.12;100.00
18167;BME280;9208;42.688;23.404;2023-05-10T06:38:39;95817.38;;;12.31;100.00
18167;BME280;9208;42.688;23.404;2023-05-10T06:41:05;95820.00;;;12.40;100.00
18167;BME280;9208;42.688;23.404;2023-05-10T06:43:30;95810.41;;;12.50;100.00
18167;BME280;9208;42.688;23.404;2023-05-10T06:45:56;95825.06;;;12.61;100.00
18167;BME280;9208;42.688;23.404;2023-05-10T06:48:22;95818.91;;;12.72;100.00
18167;BME280;9208;42.688;23.404;2023-05-10T06:50:48;95811.19;;;12.76;100.00
18167;BME280;9208;42.688;23.404;2023-05-10T06:53:13;95809.75;;;12.80;100.00
18167;BME280;9208;42.688;23.404;2023-05-10T06:55:39;95813.00;;;12.79;100.00
18167;BME280;9208;42.688;23.404;2023-05-10T06:58:04;95810.59;;;12.66;100.00
18167;BME280;9208;42.688;23.404;2023-05-10T07:00:31;95813.94;;;12.16;100.00
18167;BME280;9208;42.688;23.404;2023-05-10T07:02:56;95817.50;;;12.02;100.00
18167;BME280;9208;42.688;23.404;2023-05-10T07:05:22;95815.47;;;11.68;100.00
18167;BME280;9208;42.688;23.404;2023-05-10T07:07:47;95810.56;;;11.43;100.00
18167;BME280;9208;42.688;23.404;2023-05-10T07:10:13;95817.16;;;11.22;100.00
18167;BME280;9208;42.688;23.404;2023-05-10T07:12:38;95822.31;;;11.29;100.00
18167;BME280;9208;42.688;23.404;2023-05-10T07:15:04;95817.00;;;11.11;100.00
18167;BME280;9208;42.688;23.404;2023-05-10T07:17:30;95815.66;;;11.21;100.00
18167;BME280;9208;42.688;23.404;2023-05-10T07:19:55;95818.03;;;11.28;100.00
18167;BME280;9208;42.688;23.404;2023-05-10T07:22:21;95814.72;;;11.24;100.00
18167;BME280;9208;42.688;23.404;2023-05-10T07:24:46;95816.25;;;11.25;100.00
18167;BME280;9208;42.688;23.404;2023-05-10T07:27:12;95825.88;;;11.35;100.00
18167;BME280;9208;42.688;23.404;2023-05-10T07:29:38;95828.63;;;11.49;100.00
18167;BME280;9208;42.688;23.404;2023-05-10T07:32:04;95821.13;;;11.50;100.00
18167;BME280;9208;42.688;23.404;2023-05-10T07:34:30;95820.31;;;11.44;100.00
18167;BME280;9208;42.688;23.404;2023-05-10T07:37:00;95831.56;;;11.46;100.00
18167;BME280;9208;42.688;23.404;2023-05-10T07:39:26;95825.91;;;11.49;100.00
18167;BME280;9208;42.688;23.404;2023-05-10T07:41:52;95835.84;;;11.61;100.00
18167;BME280;9208;42.688;23.404;2023-05-10T07:44:17;95838.41;;;11.65;100.00
18167;BME280;9208;42.688;23.404;2023-05-10T07:46:44;95825.41;;;11.65;100.00
18167;BME280;9208;42.688;23.404;2023-05-10T07:49:09;95839.91;;;11.66;100.00
18167;BME280;9208;42.688;23.404;2023-05-10T07:51:35;95841.63;;;11.78;100.00
18167;BME280;9208;42.688;23.404;2023-05-10T07:54:00;95828.81;;;11.75;100.00
18167;BME280;9208;42.688;23.404;2023-05-10T07:56:29;95828.72;;;11.69;100.00
18167;BME280;9208;42.688;23.404;2023-05-10T07:58:58;95831.16;;;11.96;100.00
18167;BME280;9208;42.688;23.404;2023-05-10T08:01:25;95837.31;;;12.26;100.00
18167;BME280;9208;42.688;23.404;2023-05-10T08:03:50;95840.84;;;12.46;100.00
18167;BME280;9208;42.688;23.404;2023-05-10T08:06:19;95842.28;;;12.62;100.00
18167;BME280;9208;42.688;23.404;2023-05-10T08:08:46;95846.69;;;12.74;100.00
18167;BME280;9208;42.688;23.404;2023-05-10T08:11:15;95840.84;;;12.86;100.00
18167;BME280;9208;42.688;23.404;2023-05-10T08:13:41;95844.44;;;12.92;100.00
18167;BME280;9208;42.688;23.404;2023-05-10T08:16:07;95847.25;;;12.98;100.00
18167;BME280;9208;42.688;23.404;2023-05-10T08:18:32;95848.84;;;13.04;100.00
18167;BME280;9208;42.688;23.404;2023-05-10T08:20:57;95849.84;;;13.07;100.00
18167;BME280;9208;42.688;23.404;2023-05-10T08:23:23;95846.16;;;13.10;100.00
18167;BME280;9208;42.688;23.404;2023-05-10T08:25:48;95843.94;;;13.14;100.00
18167;BME280;9208;42.688;23.404;2023-05-10T08:28:14;95844.50;;;13.18;100.00
18167;BME280;9208;42.688;23.404;2023-05-10T08:30:39;95848.81;;;13.24;100.00
18167;BME280;9208;42.688;23.404;2023-05-10T08:33:05;95847.34;;;13.29;100.00
18167;BME280;9208;42.688;23.404;2023-05-10T08:35:30;95848.38;;;13.31;100.00
18167;BME280;9208;42.688;23.404;2023-05-10T08:37:56;95846.44;;;13.37;100.00
18167;BME280;9208;42.688;23.404;2023-05-10T08:40:23;95854.25;;;13.44;100.00
18167;BME280;9208;42.688;23.404;2023-05-10T08:43:08;95850.53;;;13.47;100.00
18167;BME280;9208;42.688;23.404;2023-05-10T08:45:37;95853.00;;;13.45;100.00
18167;BME280;9208;42.688;23.404;2023-05-10T08:48:05;95853.00;;;13.45;100.00
18167;BME280;9208;42.688;23.404;2023-05-10T08:50:31;95851.03;;;13.46;100.00
18167;BME280;9208;42.688;23.404;2023-05-10T08:53:05;95857.31;;;13.52;100.00
18167;BME280;9208;42.688;23.404;2023-05-10T08:55:32;95856.59;;;13.51;100.00
18167;BME280;9208;42.688;23.404;2023-05-10T08:57:59;95852.81;;;13.49;100.00
18167;BME280;9208;42.688;23.404;2023-05-10T09:00:26;95856.78;;;13.48;100.00
18167;BME280;9208;42.688;23.404;2023-05-10T09:02:52;95859.50;;;13.17;100.00
18167;BME280;9208;42.688;23.404;2023-05-10T09:05:18;95846.91;;;12.50;100.00
18167;BME280;9208;42.688;23.404;2023-05-10T09:07:43;95847.47;;;12.20;100.00
18167;BME280;9208;42.688;23.404;2023-05-10T09:10:10;95841.66;;;11.98;100.00
18167;BME280;9208;42.688;23.404;2023-05-10T09:12:36;95839.34;;;11.76;100.00
18167;BME280;9208;42.688;23.404;2023-05-10T09:15:03;95832.13;;;11.50;100.00
18167;BME280;9208;42.688;23.404;2023-05-10T09:17:30;95837.44;;;11.39;100.00
18167;BME280;9208;42.688;23.404;2023-05-10T09:19:59;95828.91;;;11.51;100.00
18167;BME280;9208;42.688;23.404;2023-05-10T09:22:25;95831.75;;;11.57;100.00
18167;BME280;9208;42.688;23.404;2023-05-10T09:25:23;95823.72;;;11.68;100.00
18167;BME280;9208;42.688;23.404;2023-05-10T09:27:49;95827.88;;;11.78;100.00
18167;BME280;9208;42.688;23.404;2023-05-10T09:30:24;95830.78;;;11.89;100.00
18167;BME280;9208;42.688;23.404;2023-05-10T09:32:50;95825.28;;;11.89;100.00
18167;BME280;9208;42.688;23.404;2023-05-10T09:35:18;95826.91;;;11.81;100.00
18167;BME280;9208;42.688;23.404;2023-05-10T09:37:49;95825.88;;;11.78;100.00
18167;BME280;9208;42.688;23.404;2023-05-10T09:40:17;95824.38;;;11.77;100.00
18167;BME280;9208;42.688;23.404;2023-05-10T09:42:57;95824.63;;;11.79;100.00
18167;BME280;9208;42.688;23.404;2023-05-10T09:45:25;95821.03;;;11.88;100.00
18167;BME280;9208;42.688;23.404;2023-05-10T09:47:50;95823.38;;;11.95;100.00
18167;BME280;9208;42.688;23.404;2023-05-10T09:50:16;95828.19;;;12.00;100.00
18167;BME280;9208;42.688;23.404;2023-05-10T09:52:49;95822.88;;;12.11;100.00
18167;BME280;9208;42.688;23.404;2023-05-10T09:55:16;95817.47;;;12.16;100.00
18167;BME280;9208;42.688;23.404;2023-05-10T09:57:42;95806.81;;;12.24;100.00
18167;BME280;9208;42.688;23.404;2023-05-10T10:00:08;95811.22;;;12.36;100.00
18167;BME280;9208;42.688;23.404;2023-05-10T10:02:38;95786.13;;;12.48;100.00
18167;BME280;9208;42.688;23.404;2023-05-10T10:05:06;95814.22;;;12.98;100.00
18167;BME280;9208;42.688;23.404;2023-05-10T10:07:32;95814.69;;;13.16;100.00
18167;BME280;9208;42.688;23.404;2023-05-10T10:09:59;95802.25;;;13.26;100.00
18167;BME280;9208;42.688;23.404;2023-05-10T10:12:25;95810.66;;;13.43;100.00
18167;BME280;9208;42.688;23.404;2023-05-10T10:14:51;95791.69;;;13.45;100.00
18167;BME280;9208;42.688;23.404;2023-05-10T10:17:18;95801.75;;;13.53;100.00
18167;BME280;9208;42.688;23.404;2023-05-10T10:19:45;95791.75;;;13.56;100.00
18167;BME280;9208;42.688;23.404;2023-05-10T10:22:10;95801.81;;;13.59;100.00
18167;BME280;9208;42.688;23.404;2023-05-10T10:24:38;95799.91;;;13.70;100.00
18167;BME280;9208;42.688;23.404;2023-05-10T10:27:22;95794.63;;;13.72;100.00
18167;BME280;9208;42.688;23.404;2023-05-10T10:35:43;95804.91;;;14.03;100.00
18167;BME280;9208;42.688;23.404;2023-05-10T10:38:14;95801.91;;;14.06;100.00
18167;BME280;9208;42.688;23.404;2023-05-10T10:40:42;95814.72;;;14.09;100.00
18167;BME280;9208;42.688;23.404;2023-05-10T10:43:27;95807.47;;;14.12;100.00
18167;BME280;9208;42.688;23.404;2023-05-10T10:49:09;95805.69;;;14.09;100.00
18167;BME280;9208;42.688;23.404;2023-05-10T10:51:38;95804.22;;;14.13;100.00
18167;BME280;9208;42.688;23.404;2023-05-10T10:54:12;95799.94;;;14.12;100.00
18167;BME280;9208;42.688;23.404;2023-05-10T10:56:38;95798.88;;;14.04;100.00
18167;BME280;9208;42.688;23.404;2023-05-10T10:59:03;95792.88;;;14.06;100.00
18167;BME280;9208;42.688;23.404;2023-05-10T11:01:35;95798.13;;;14.04;100.00
18167;BME280;9208;42.688;23.404;2023-05-10T11:06:29;95800.13;;;14.03;100.00
18167;BME280;9208;42.688;23.404;2023-05-10T11:08:57;95802.66;;;14.07;100.00
18167;BME280;9208;42.688;23.404;2023-05-10T11:11:22;95793.41;;;14.10;100.00
18167;BME280;9208;42.688;23.404;2023-05-10T11:13:48;95797.66;;;14.11;100.00
18167;BME280;9208;42.688;23.404;2023-05-10T11:19:02;95791.91;;;14.09;100.00
18167;BME280;9208;42.688;23.404;2023-05-10T11:21:32;95795.44;;;14.15;100.00
18167;BME280;9208;42.688;23.404;2023-05-10T11:23:59;95791.69;;;14.18;100.00
18167;BME280;9208;42.688;23.404;2023-05-10T11:26:30;95795.78;;;14.28;100.00
18167;BME280;9208;42.688;23.404;2023-05-10T11:28:56;95800.06;;;14.29;100.00
18167;BME280;9208;42.688;23.404;2023-05-10T11:31:23;95812.13;;;14.31;100.00
18167;BME280;9208;42.688;23.404;2023-05-10T11:33:53;95806.38;;;14.35;100.00
18167;BME280;9208;42.688;23.404;2023-05-10T11:36:27;95795.06;;;14.27;100.00
18167;BME280;9208;42.688;23.404;2023-05-10T11:38:53;95792.56;;;14.35;100.00
18167;BME280;9208;42.688;23.404;2023-05-10T11:41:19;95796.34;;;14.37;100.00
18167;BME280;9208;42.688;23.404;2023-05-10T11:43:52;95797.38;;;14.40;100.00
18167;BME280;9208;42.688;23.404;2023-05-10T11:46:20;95797.59;;;14.36;100.00
18167;BME280;9208;42.688;23.404;2023-05-10T11:48:47;95791.06;;;14.34;100.00
18167;BME280;9208;42.688;23.404;2023-05-10T11:51:14;95791.81;;;14.34;100.00
18167;BME280;9208;42.688;23.404;2023-05-10T11:53:40;95793.59;;;14.37;100.00
18167;BME280;9208;42.688;23.404;2023-05-10T11:56:09;95795.84;;;14.39;100.00
18167;BME280;9208;42.688;23.404;2023-05-10T11:58:37;95788.31;;;14.39;100.00
18167;BME280;9208;42.688;23.404;2023-05-10T12:01:04;95779.03;;;14.31;100.00
18167;BME280;9208;42.688;23.404;2023-05-10T12:03:30;95789.56;;;14.38;100.00
18167;BME280;9208;42.688;23.404;2023-05-10T12:05:57;95783.25;;;14.27;100.00
18167;BME280;9208;42.688;23.404;2023-05-10T12:08:24;95784.03;;;14.33;100.00
18167;BME280;9208;42.688;23.404;2023-05-10T12:10:51;95785.28;;;14.32;100.00
18167;BME280;9208;42.688;23.404;2023-05-10T12:13:19;95766.19;;;14.23;100.00
18167;BME280;9208;42.688;23.404;2023-05-10T12:15:45;95781.47;;;14.24;100.00
18167;BME280;9208;42.688;23.404;2023-05-10T12:18:12;95772.59;;;14.09;100.00
18167;BME280;9208;42.688;23.404;2023-05-10T12:20:39;95759.94;;;13.86;100.00
18167;BME280;9208;42.688;23.404;2023-05-10T12:23:05;95760.84;;;13.72;100.00
18167;BME280;9208;42.688;23.404;2023-05-10T12:25:35;95763.78;;;13.63;100.00
18167;BME280;9208;42.688;23.404;2023-05-10T12:28:03;95773.59;;;13.69;100.00
18167;BME280;9208;42.688;23.404;2023-05-10T12:30:31;95767.72;;;13.87;100.00
18167;BME280;9208;42.688;23.404;2023-05-10T12:33:17;95764.22;;;13.92;100.00
18167;BME280;9208;42.688;23.404;2023-05-10T12:35:50;95768.25;;;13.97;100.00
18167;BME280;9208;42.688;23.404;2023-05-10T12:40:56;95764.97;;;13.93;100.00
18167;BME280;9208;42.688;23.404;2023-05-10T12:43:21;95764.00;;;13.96;100.00
18167;BME280;9208;42.688;23.404;2023-05-10T12:45:47;95759.63;;;13.78;100.00
18167;BME280;9208;42.688;23.404;2023-05-10T12:48:14;95749.09;;;13.77;100.00
18167;BME280;9208;42.688;23.404;2023-05-10T12:50:40;95754.06;;;13.73;100.00
18167;BME280;9208;42.688;23.404;2023-05-10T12:53:05;95750.22;;;13.59;100.00
18167;BME280;9208;42.688;23.404;2023-05-10T12:55:31;95749.28;;;13.68;100.00
18167;BME280;9208;42.688;23.404;2023-05-10T12:57:56;95749.53;;;13.70;100.00
18167;BME280;9208;42.688;23.404;2023-05-10T13:00:22;95740.75;;;13.66;100.00
18167;BME280;9208;42.688;23.404;2023-05-10T13:02:47;95737.00;;;13.69;100.00
18167;BME280;9208;42.688;23.404;2023-05-10T13:05:13;95730.88;;;13.85;100.00
18167;BME280;9208;42.688;23.404;2023-05-10T13:07:39;95748.28;;;14.07;100.00
18167;BME280;9208;42.688;23.404;2023-05-10T13:10:05;95736.75;;;14.09;100.00
18167;BME280;9208;42.688;23.404;2023-05-10T13:12:31;95738.53;;;14.12;100.00
18167;BME280;9208;42.688;23.404;2023-05-10T13:14:57;95728.03;;;14.16;100.00
18167;BME280;9208;42.688;23.404;2023-05-10T13:17:25;95737.53;;;14.15;100.00
18167;BME280;9208;42.688;23.404;2023-05-10T13:19:51;95727.78;;;14.19;100.00
18167;BME280;9208;42.688;23.404;2023-05-10T13:22:17;95733.31;;;14.19;100.00
18167;BME280;9208;42.688;23.404;2023-05-10T13:24:42;95721.50;;;14.19;100.00
18167;BME280;9208;42.688;23.404;2023-05-10T13:27:08;95729.34;;;14.26;100.00